createdAt,value
2022-07-30T00:00:40.489Z,100.00
2022-07-30T00:03:09.827Z,100.00
2022-07-30T00:05:39.123Z,100.00
2022-07-30T00:08:08.026Z,100.00
2022-07-30T00:10:37.352Z,100.00
2022-07-30T00:13:06.783Z,100.00
2022-07-30T00:15:36.028Z,100.00
2022-07-30T00:18:05.172Z,100.00
2022-07-30T00:20:34.471Z,100.00
2022-07-30T00:23:06.065Z,100.00
2022-07-30T00:25:35.149Z,100.00
2022-07-30T00:28:04.278Z,100.00
2022-07-30T00:30:33.414Z,100.00
2022-07-30T00:33:02.623Z,100.00
2022-07-30T00:35:31.557Z,100.00
2022-07-30T00:38:00.762Z,100.00
2022-07-30T00:40:30.393Z,100.00
2022-07-30T00:42:59.563Z,100.00
2022-07-30T00:45:28.772Z,100.00
2022-07-30T00:47:59.881Z,100.00
2022-07-30T00:50:29.049Z,100.00
2022-07-30T00:52:57.881Z,100.00
2022-07-30T00:55:27.152Z,100.00
2022-07-30T00:57:56.388Z,100.00
2022-07-30T01:00:26.358Z,100.00
2022-07-30T01:02:55.924Z,100.00
2022-07-30T01:05:25.345Z,100.00
2022-07-30T01:07:54.434Z,100.00
2022-07-30T01:10:23.668Z,100.00
2022-07-30T01:12:55.589Z,100.00
2022-07-30T01:15:24.895Z,100.00
2022-07-30T01:18:01.371Z,100.00
2022-07-30T01:20:44.502Z,100.00
2022-07-30T01:23:29.262Z,100.00
2022-07-30T01:26:11.374Z,100.00
2022-07-30T01:28:48.085Z,100.00
2022-07-30T01:31:18.755Z,100.00
2022-07-30T01:33:51.240Z,100.00
2022-07-30T01:36:24.702Z,100.00
2022-07-30T01:38:55.836Z,100.00
2022-07-30T01:41:26.314Z,100.00
2022-07-30T01:43:56.049Z,100.00
2022-07-30T01:46:26.827Z,100.00
2022-07-30T01:48:59.561Z,100.00
2022-07-30T01:51:37.417Z,100.00
2022-07-30T01:54:11.092Z,100.00
2022-07-30T01:56:42.355Z,100.00
2022-07-30T01:59:13.055Z,100.00
2022-07-30T02:01:42.945Z,100.00
2022-07-30T02:04:12.304Z,100.00
2022-07-30T02:06:47.720Z,100.00
2022-07-30T02:09:24.498Z,100.00
2022-07-30T02:12:14.831Z,100.00
2022-07-30T02:15:01.878Z,100.00
2022-07-30T02:17:39.797Z,100.00
2022-07-30T02:20:15.022Z,100.00
2022-07-30T02:22:48.429Z,100.00
2022-07-30T02:25:21.828Z,100.00
2022-07-30T02:27:59.473Z,100.00
2022-07-30T02:30:32.748Z,100.00
2022-07-30T02:33:11.788Z,100.00
2022-07-30T02:35:42.681Z,100.00
2022-07-30T02:38:14.884Z,100.00
2022-07-30T02:40:45.794Z,100.00
2022-07-30T02:43:17.605Z,100.00
2022-07-30T02:45:49.507Z,100.00
2022-07-30T02:48:34.641Z,100.00
2022-07-30T02:51:07.094Z,100.00
2022-07-30T02:53:38.741Z,100.00
2022-07-30T02:56:09.519Z,100.00
2022-07-30T02:58:40.610Z,100.00
2022-07-30T03:01:11.528Z,100.00
2022-07-30T03:03:44.092Z,100.00
2022-07-30T03:06:14.968Z,100.00
2022-07-30T03:08:46.301Z,100.00
2022-07-30T03:11:19.077Z,100.00
2022-07-30T03:13:49.298Z,100.00
2022-07-30T03:16:21.264Z,100.00
2022-07-30T03:18:51.217Z,100.00
2022-07-30T03:21:24.136Z,100.00
2022-07-30T03:23:58.035Z,100.00
2022-07-30T03:26:28.727Z,100.00
2022-07-30T03:28:58.638Z,100.00
2022-07-30T03:31:28.411Z,100.00
2022-07-30T03:34:06.439Z,100.00
2022-07-30T03:36:36.941Z,100.00
2022-07-30T03:39:08.463Z,100.00
2022-07-30T03:41:41.669Z,100.00
2022-07-30T03:44:16.409Z,100.00
2022-07-30T03:46:46.916Z,100.00
2022-07-30T03:49:16.508Z,100.00
2022-07-30T03:51:50.853Z,100.00
2022-07-30T03:54:20.774Z,100.00
2022-07-30T03:57:22.516Z,100.00
2022-07-30T03:59:52.729Z,100.00
2022-07-30T04:02:23.683Z,100.00
2022-07-30T04:04:56.545Z,100.00
2022-07-30T04:07:26.269Z,100.00
2022-07-30T04:09:55.519Z,100.00
2022-07-30T04:12:53.787Z,100.00
2022-07-30T04:16:05.458Z,100.00
2022-07-30T04:18:17.152Z,100.00
2022-07-30T04:20:49.897Z,100.00
2022-07-30T04:23:21.251Z,100.00
2022-07-30T04:25:52.687Z,100.00
2022-07-30T04:28:22.972Z,100.00
2022-07-30T04:30:52.118Z,100.00
2022-07-30T04:33:21.177Z,100.00
2022-07-30T04:36:19.859Z,100.00
2022-07-30T04:38:49.041Z,100.00
2022-07-30T04:41:18.009Z,100.00
2022-07-30T04:44:13.091Z,100.00
2022-07-30T04:46:51.434Z,98.69
2022-07-30T04:49:23.590Z,98.58
2022-07-30T04:51:53.377Z,99.11
2022-07-30T04:54:23.994Z,98.43
2022-07-30T04:56:56.824Z,95.64
2022-07-30T04:59:26.878Z,97.13
2022-07-30T05:01:58.882Z,97.39
2022-07-30T05:04:29.336Z,95.25
2022-07-30T05:07:00.555Z,94.98
2022-07-30T05:09:33.279Z,94.00
2022-07-30T05:12:03.575Z,92.94
2022-07-30T05:14:33.267Z,95.34
2022-07-30T05:17:03.513Z,95.08
2022-07-30T05:19:34.010Z,98.96
2022-07-30T05:22:06.556Z,98.21
2022-07-30T05:24:36.790Z,98.63
2022-07-30T05:27:06.310Z,98.11
2022-07-30T05:29:35.387Z,97.61
2022-07-30T05:32:13.376Z,98.92
2022-07-30T05:34:44.938Z,97.06
2022-07-30T05:37:19.761Z,94.32
2022-07-30T05:39:58.772Z,94.21
2022-07-30T05:42:38.572Z,92.53
2022-07-30T05:45:10.830Z,94.50
2022-07-30T05:47:41.441Z,95.64
2022-07-30T05:50:11.149Z,91.46
2022-07-30T05:52:40.104Z,91.24
2022-07-30T05:55:29.573Z,90.97
2022-07-30T05:58:12.905Z,90.93
2022-07-30T06:00:42.620Z,93.00
2022-07-30T06:03:12.975Z,90.29
2022-07-30T06:06:05.081Z,92.36
2022-07-30T06:08:35.172Z,94.75
2022-07-30T06:11:04.488Z,93.30
2022-07-30T06:13:36.753Z,92.93
2022-07-30T06:16:06.809Z,95.53
2022-07-30T06:18:40.043Z,93.50
2022-07-30T06:21:17.186Z,92.83
2022-07-30T06:24:06.915Z,92.62
2022-07-30T06:26:42.631Z,92.54
2022-07-30T06:29:13.391Z,92.24
2022-07-30T06:31:43.438Z,93.64
2022-07-30T06:34:14.657Z,94.35
2022-07-30T06:36:45.154Z,93.50
2022-07-30T06:39:55.955Z,91.63
2022-07-30T06:42:31.161Z,90.79
2022-07-30T06:45:22.739Z,88.17
2022-07-30T06:48:11.903Z,88.82
2022-07-30T06:50:44.063Z,87.01
2022-07-30T06:53:13.797Z,89.53
2022-07-30T06:56:02.471Z,89.19
2022-07-30T06:58:41.287Z,85.93
2022-07-30T07:01:28.933Z,86.55
2022-07-30T07:03:59.541Z,85.74
2022-07-30T07:06:28.805Z,84.98
2022-07-30T07:08:57.959Z,83.47
2022-07-30T07:11:36.194Z,84.76
2022-07-30T07:14:10.339Z,84.16
2022-07-30T07:16:39.891Z,82.99
2022-07-30T07:20:00.217Z,81.28
2022-07-30T07:22:26.041Z,78.13
2022-07-30T07:24:55.671Z,82.04
2022-07-30T07:27:28.625Z,84.67
2022-07-30T07:30:05.758Z,84.48
2022-07-30T07:32:38.995Z,87.34
2022-07-30T07:35:10.298Z,87.19
2022-07-30T07:37:43.101Z,87.37
2022-07-30T07:40:20.464Z,87.05
2022-07-30T07:42:49.452Z,85.13
2022-07-30T07:45:21.563Z,85.69
2022-07-30T07:47:59.683Z,82.76
2022-07-30T07:50:59.765Z,83.40
2022-07-30T07:53:33.148Z,85.18
2022-07-30T07:56:02.213Z,83.93
2022-07-30T07:58:31.958Z,84.83
2022-07-30T08:01:03.341Z,83.71
2022-07-30T08:03:52.867Z,81.67
2022-07-30T08:06:54.119Z,82.41
2022-07-30T08:09:44.578Z,82.38
2022-07-30T08:12:21.174Z,78.83
2022-07-30T08:15:10.698Z,82.41
2022-07-30T08:18:20.497Z,83.22
2022-07-30T08:21:03.040Z,80.53
2022-07-30T08:23:34.213Z,80.26
2022-07-30T08:26:03.561Z,78.38
2022-07-30T08:28:35.953Z,79.19
2022-07-30T08:31:08.820Z,79.61
2022-07-30T08:33:38.691Z,80.13
2022-07-30T08:36:10.200Z,76.58
2022-07-30T08:38:40.595Z,79.74
2022-07-30T08:41:10.759Z,82.01
2022-07-30T08:43:41.493Z,83.82
2022-07-30T08:46:14.037Z,84.70
2022-07-30T08:48:58.413Z,84.11
2022-07-30T08:51:28.433Z,85.66
2022-07-30T08:54:36.712Z,86.60
2022-07-30T08:57:06.779Z,86.16
2022-07-30T08:59:59.767Z,84.40
2022-07-30T09:02:33.041Z,86.23
2022-07-30T09:05:07.138Z,86.44
2022-07-30T09:07:37.399Z,86.59
2022-07-30T09:10:11.306Z,87.49
2022-07-30T09:12:46.515Z,86.98
2022-07-30T09:15:18.348Z,87.85
2022-07-30T09:17:53.851Z,87.54
2022-07-30T09:20:29.206Z,89.68
2022-07-30T09:23:02.311Z,89.90
2022-07-30T09:25:45.996Z,89.29
2022-07-30T09:28:36.524Z,89.86
2022-07-30T09:32:05.242Z,89.30
2022-07-30T09:34:53.228Z,88.67
2022-07-30T09:37:41.420Z,92.85
2022-07-30T09:40:32.239Z,91.56
2022-07-30T09:43:23.275Z,92.41
2022-07-30T09:46:01.789Z,92.37
2022-07-30T09:48:31.063Z,91.73
2022-07-30T09:51:00.492Z,92.21
2022-07-30T09:53:30.950Z,93.63
2022-07-30T09:56:00.997Z,94.70
2022-07-30T09:58:46.187Z,91.50
2022-07-30T10:01:16.989Z,91.09
2022-07-30T10:04:34.472Z,89.50
2022-07-30T10:07:25.525Z,91.89
2022-07-30T10:10:02.068Z,90.79
2022-07-30T10:12:38.975Z,90.73
2022-07-30T10:15:13.445Z,91.15
2022-07-30T10:17:43.796Z,91.54
2022-07-30T10:20:22.875Z,91.88
2022-07-30T10:23:15.881Z,87.66
2022-07-30T10:26:04.477Z,88.43
2022-07-30T10:28:53.762Z,88.75
2022-07-30T10:31:49.490Z,89.33
2022-07-30T10:34:13.479Z,89.09
2022-07-30T10:36:49.001Z,89.80
2022-07-30T10:39:34.631Z,88.29
2022-07-30T10:42:29.677Z,89.15
2022-07-30T10:45:29.641Z,88.17
2022-07-30T10:47:59.769Z,88.76
2022-07-30T10:50:30.322Z,88.92
2022-07-30T10:53:05.214Z,87.26
2022-07-30T10:55:39.174Z,86.04
2022-07-30T10:58:15.505Z,84.57
2022-07-30T11:01:05.294Z,83.66
2022-07-30T11:04:20.527Z,86.25
2022-07-30T11:06:50.915Z,85.96
2022-07-30T11:09:41.836Z,86.37
2022-07-30T11:12:12.962Z,88.01
2022-07-30T11:14:48.520Z,89.05
2022-07-30T11:17:19.831Z,89.04
2022-07-30T11:20:11.682Z,89.41
2022-07-30T11:22:42.420Z,90.45
2022-07-30T11:25:51.209Z,91.43
2022-07-30T11:28:41.710Z,92.15
2022-07-30T11:31:54.963Z,91.64
2022-07-30T11:34:25.772Z,91.59
2022-07-30T11:37:18.621Z,89.87
2022-07-30T11:39:57.815Z,91.64
2022-07-30T11:42:30.076Z,93.08
2022-07-30T11:45:17.818Z,93.71
2022-07-30T11:47:49.513Z,94.11
2022-07-30T11:50:36.067Z,92.47
2022-07-30T11:53:11.762Z,92.03
2022-07-30T11:55:44.971Z,91.50
2022-07-30T11:58:34.524Z,91.06
2022-07-30T12:01:09.025Z,90.15
2022-07-30T12:03:42.855Z,90.01
2022-07-30T12:06:19.007Z,90.42
2022-07-30T12:08:57.881Z,92.63
2022-07-30T12:11:34.099Z,91.18
2022-07-30T12:14:03.877Z,91.99
2022-07-30T12:16:34.155Z,91.10
2022-07-30T12:19:05.577Z,90.86
2022-07-30T12:21:35.277Z,90.55
2022-07-30T12:24:11.083Z,91.76
2022-07-30T12:26:40.826Z,90.18
2022-07-30T12:29:14.288Z,90.56
2022-07-30T12:31:43.846Z,90.79
2022-07-30T12:34:27.279Z,91.24
2022-07-30T12:36:56.474Z,91.16
2022-07-30T12:39:28.752Z,91.36
2022-07-30T12:41:58.151Z,90.84
2022-07-30T12:44:38.880Z,89.05
2022-07-30T12:47:21.688Z,89.36
2022-07-30T12:49:53.442Z,89.55
2022-07-30T12:52:32.230Z,89.76
2022-07-30T12:55:10.870Z,90.51
2022-07-30T12:58:07.133Z,91.65
2022-07-30T13:00:46.051Z,92.29
2022-07-30T13:03:26.122Z,92.60
2022-07-30T13:05:59.042Z,93.25
2022-07-30T13:08:47.391Z,93.03
2022-07-30T13:11:17.360Z,93.34
2022-07-30T13:13:46.959Z,93.53
2022-07-30T13:16:16.509Z,94.66
2022-07-30T13:18:46.084Z,94.74
2022-07-30T13:21:16.133Z,94.85
2022-07-30T13:23:45.186Z,94.67
2022-07-30T13:26:14.774Z,93.49
2022-07-30T13:28:44.256Z,95.03
2022-07-30T13:31:14.263Z,94.87
2022-07-30T13:33:43.532Z,93.99
2022-07-30T13:36:13.255Z,94.36
2022-07-30T13:38:42.716Z,94.00
2022-07-30T13:41:12.531Z,93.94
2022-07-30T13:43:41.647Z,94.48
2022-07-30T13:46:10.642Z,94.16
2022-07-30T13:48:40.438Z,92.70
2022-07-30T13:51:09.472Z,92.69
2022-07-30T13:53:38.806Z,92.31
2022-07-30T13:56:12.598Z,92.22
2022-07-30T13:58:42.822Z,93.18
2022-07-30T14:01:17.958Z,93.19
2022-07-30T14:03:50.896Z,93.79
2022-07-30T14:06:20.856Z,92.99
2022-07-30T14:08:50.081Z,93.75
2022-07-30T14:11:19.606Z,94.69
2022-07-30T14:13:51.710Z,95.57
2022-07-30T14:16:43.637Z,93.82
2022-07-30T14:19:23.037Z,95.57
2022-07-30T14:21:55.137Z,95.41
2022-07-30T14:24:25.107Z,97.83
2022-07-30T14:26:57.950Z,98.10
2022-07-30T14:29:28.910Z,97.47
2022-07-30T14:31:58.266Z,97.99
2022-07-30T14:34:27.641Z,98.13
2022-07-30T14:36:56.879Z,98.45
2022-07-30T14:39:27.520Z,97.98
2022-07-30T14:41:57.486Z,97.89
2022-07-30T14:44:26.777Z,98.34
2022-07-30T14:46:56.400Z,98.59
2022-07-30T14:49:26.451Z,98.17
2022-07-30T14:51:56.570Z,98.52
2022-07-30T14:54:25.775Z,98.92
2022-07-30T14:56:58.436Z,99.76
2022-07-30T14:59:29.550Z,98.96
2022-07-30T15:01:59.347Z,99.22
2022-07-30T15:04:29.115Z,99.68
2022-07-30T15:06:58.801Z,100.00
2022-07-30T15:09:28.501Z,100.00
2022-07-30T15:12:09.324Z,100.00
2022-07-30T15:14:41.128Z,100.00
2022-07-30T15:17:10.543Z,100.00
2022-07-30T15:19:50.323Z,100.00
2022-07-30T15:22:21.373Z,100.00
2022-07-30T15:24:50.671Z,100.00
2022-07-30T15:27:22.438Z,100.00
2022-07-30T15:29:57.185Z,100.00
2022-07-30T15:32:26.414Z,100.00
2022-07-30T15:34:59.781Z,100.00
2022-07-30T15:37:29.395Z,100.00
2022-07-30T15:39:59.131Z,100.00
2022-07-30T15:42:28.331Z,100.00
2022-07-30T15:45:16.138Z,100.00
2022-07-30T15:47:47.076Z,100.00
2022-07-30T15:50:18.158Z,100.00
2022-07-30T15:52:47.656Z,100.00
2022-07-30T15:55:18.040Z,100.00
2022-07-30T15:57:49.464Z,100.00
2022-07-30T16:00:19.030Z,100.00
2022-07-30T16:02:48.055Z,100.00
2022-07-30T16:05:17.676Z,100.00
2022-07-30T16:07:46.593Z,100.00
2022-07-30T16:10:16.708Z,100.00
2022-07-30T16:12:46.098Z,100.00
2022-07-30T16:15:16.329Z,100.00
2022-07-30T16:17:45.879Z,100.00
2022-07-30T16:20:15.204Z,100.00
2022-07-30T16:22:44.535Z,100.00
2022-07-30T16:25:14.356Z,100.00
2022-07-30T16:27:44.020Z,100.00
2022-07-30T16:30:13.959Z,100.00
2022-07-30T16:32:43.108Z,100.00
2022-07-30T16:35:13.451Z,100.00
2022-07-30T16:37:43.356Z,100.00
2022-07-30T16:40:13.075Z,100.00
2022-07-30T16:42:42.215Z,100.00
2022-07-30T16:45:11.688Z,100.00
2022-07-30T16:47:40.958Z,100.00
2022-07-30T16:50:10.912Z,100.00
2022-07-30T16:52:40.042Z,100.00
2022-07-30T16:55:10.647Z,100.00
2022-07-30T16:57:39.678Z,100.00
2022-07-30T17:00:10.127Z,100.00
2022-07-30T17:02:39.688Z,100.00
2022-07-30T17:05:13.321Z,100.00
2022-07-30T17:07:43.268Z,100.00
2022-07-30T17:10:13.318Z,100.00
2022-07-30T17:12:51.057Z,100.00
2022-07-30T17:15:20.662Z,100.00
2022-07-30T17:18:05.255Z,100.00
2022-07-30T17:20:35.458Z,100.00
2022-07-30T17:23:05.689Z,100.00
2022-07-30T17:25:35.264Z,100.00
2022-07-30T17:28:04.855Z,100.00
2022-07-30T17:30:34.552Z,100.00
2022-07-30T17:33:05.987Z,100.00
2022-07-30T17:35:35.584Z,100.00
2022-07-30T17:38:05.104Z,100.00
2022-07-30T17:40:34.380Z,100.00
2022-07-30T17:43:08.542Z,100.00
2022-07-30T17:45:38.448Z,100.00
2022-07-30T17:48:09.400Z,100.00
2022-07-30T17:50:39.106Z,100.00
2022-07-30T17:53:08.452Z,100.00
2022-07-30T17:55:38.288Z,100.00
2022-07-30T17:58:07.915Z,100.00
2022-07-30T18:00:37.511Z,100.00
2022-07-30T18:03:06.797Z,100.00
2022-07-30T18:05:36.229Z,100.00
2022-07-30T18:08:05.551Z,100.00
2022-07-30T18:10:35.005Z,100.00
2022-07-30T18:13:25.939Z,100.00
2022-07-30T18:15:54.123Z,100.00
2022-07-30T18:18:23.225Z,100.00
2022-07-30T18:20:52.483Z,100.00
2022-07-30T18:23:21.688Z,100.00
2022-07-30T18:25:54.463Z,100.00
2022-07-30T18:28:24.904Z,100.00
2022-07-30T18:30:56.005Z,100.00
2022-07-30T18:33:25.821Z,100.00
2022-07-30T18:35:55.186Z,100.00
2022-07-30T18:38:24.619Z,100.00
2022-07-30T18:41:00.112Z,100.00
2022-07-30T18:43:29.999Z,100.00
2022-07-30T18:46:01.261Z,100.00
2022-07-30T18:48:30.693Z,100.00
2022-07-30T18:50:59.692Z,100.00
2022-07-30T18:53:29.737Z,100.00
2022-07-30T18:55:59.086Z,100.00
2022-07-30T18:58:28.231Z,100.00
2022-07-30T19:00:57.491Z,100.00
2022-07-30T19:03:26.449Z,100.00
2022-07-30T19:05:55.638Z,100.00
2022-07-30T19:08:24.550Z,100.00
2022-07-30T19:10:53.996Z,100.00
2022-07-30T19:13:25.083Z,100.00
2022-07-30T19:15:54.374Z,100.00
2022-07-30T19:18:23.624Z,100.00
2022-07-30T19:20:53.063Z,100.00
2022-07-30T19:23:22.377Z,100.00
2022-07-30T19:25:52.217Z,100.00
2022-07-30T19:28:21.547Z,100.00
2022-07-30T19:30:51.099Z,100.00
2022-07-30T19:33:21.527Z,100.00
2022-07-30T19:35:51.467Z,100.00
2022-07-30T19:38:22.027Z,100.00
2022-07-30T19:40:53.261Z,100.00
2022-07-30T19:43:24.639Z,100.00
2022-07-30T19:45:54.478Z,100.00
2022-07-30T19:48:31.789Z,100.00
2022-07-30T19:51:02.462Z,100.00
2022-07-30T19:53:34.779Z,100.00
2022-07-30T19:56:08.367Z,100.00
2022-07-30T19:58:40.785Z,100.00
2022-07-30T20:01:12.106Z,100.00
2022-07-30T20:03:42.066Z,100.00
2022-07-30T20:06:18.146Z,100.00
2022-07-30T20:08:47.259Z,100.00
2022-07-30T20:11:34.783Z,100.00
2022-07-30T20:14:06.417Z,100.00
2022-07-30T20:16:36.557Z,100.00
2022-07-30T20:19:06.250Z,100.00
2022-07-30T20:21:56.324Z,100.00
2022-07-30T20:24:26.689Z,100.00
2022-07-30T20:26:55.807Z,100.00
2022-07-30T20:29:25.571Z,100.00
2022-07-30T20:31:56.059Z,100.00
2022-07-30T20:34:25.925Z,100.00
2022-07-30T20:36:56.928Z,100.00
2022-07-30T20:39:26.972Z,100.00
2022-07-30T20:42:14.888Z,100.00
2022-07-30T20:44:49.521Z,100.00
2022-07-30T20:47:37.494Z,100.00
2022-07-30T20:50:10.856Z,100.00
2022-07-30T20:52:46.703Z,100.00
2022-07-30T20:55:18.724Z,100.00
2022-07-30T20:57:57.141Z,100.00
2022-07-30T21:00:32.994Z,100.00
2022-07-30T21:03:03.401Z,100.00
2022-07-30T21:05:33.376Z,100.00
2022-07-30T21:08:02.739Z,100.00
2022-07-30T21:10:33.636Z,100.00
2022-07-30T21:13:07.638Z,100.00
2022-07-30T21:15:45.538Z,100.00
2022-07-30T21:18:26.590Z,100.00
2022-07-30T21:20:56.853Z,100.00
2022-07-30T21:23:28.104Z,100.00
2022-07-30T21:26:02.796Z,100.00
2022-07-30T21:28:35.636Z,100.00
2022-07-30T21:31:06.957Z,100.00
2022-07-30T21:33:38.705Z,100.00
2022-07-30T21:38:57.553Z,100.00
2022-07-30T21:41:40.433Z,100.00
2022-07-30T21:44:10.664Z,100.00
2022-07-30T21:46:41.866Z,100.00
2022-07-30T21:49:11.691Z,100.00
2022-07-30T21:51:41.073Z,100.00
2022-07-30T21:54:17.051Z,100.00
2022-07-30T21:56:56.467Z,100.00
2022-07-30T21:59:28.636Z,100.00
2022-07-30T22:01:57.930Z,100.00
2022-07-30T22:04:27.403Z,100.00
2022-07-30T22:06:56.625Z,100.00
2022-07-30T22:09:34.276Z,100.00
2022-07-30T22:12:09.062Z,100.00
2022-07-30T22:14:41.866Z,100.00
2022-07-30T22:17:22.531Z,100.00
2022-07-30T22:19:55.549Z,100.00
2022-07-30T22:22:26.602Z,100.00
2022-07-30T22:24:59.910Z,100.00
2022-07-30T22:27:39.527Z,100.00
2022-07-30T22:30:13.762Z,100.00
2022-07-30T22:32:43.860Z,100.00
2022-07-30T22:35:16.223Z,100.00
2022-07-30T22:37:46.747Z,100.00
2022-07-30T22:40:17.011Z,100.00
2022-07-30T22:42:49.622Z,100.00
2022-07-30T22:45:34.108Z,100.00
2022-07-30T22:48:10.818Z,100.00
2022-07-30T22:50:41.288Z,100.00
2022-07-30T22:53:23.612Z,100.00
2022-07-30T22:56:00.039Z,100.00
2022-07-30T22:58:30.052Z,100.00
2022-07-30T23:00:59.149Z,100.00
2022-07-30T23:03:28.572Z,100.00
2022-07-30T23:05:57.790Z,100.00
2022-07-30T23:08:29.615Z,100.00
2022-07-30T23:11:02.996Z,100.00
2022-07-30T23:12:32.056Z,100.00
2022-07-30T23:13:32.259Z,100.00
2022-07-30T23:16:01.267Z,100.00
2022-07-30T23:18:30.430Z,100.00
2022-07-30T23:21:00.530Z,100.00
2022-07-30T23:23:34.329Z,100.00
2022-07-30T23:26:07.480Z,100.00
2022-07-30T23:28:37.915Z,100.00
2022-07-30T23:31:07.249Z,100.00
2022-07-30T23:33:36.324Z,100.00
2022-07-30T23:36:09.869Z,100.00
2022-07-30T23:38:39.081Z,100.00
2022-07-30T23:41:08.307Z,100.00
2022-07-30T23:43:38.820Z,100.00
2022-07-30T23:46:09.559Z,100.00
2022-07-30T23:48:40.626Z,100.00
2022-07-30T23:51:09.545Z,100.00
2022-07-30T23:53:39.079Z,100.00
2022-07-30T23:56:08.965Z,100.00
2022-07-30T23:58:40.640Z,100.00
